Nearby METAR Reports

METAR is the scheduled surface weather observation taken hourly at civil and military airport locations.

METAR is an acronym from the French language and roughly translates as Aviation Routine Weather Report.

 

EGPL - Benbecula Island, United Kingdom
Distance from station: WNW 41mi, 66km
Updated: 23/03/2019 07:20
Few Clouds
Few Clouds
 Wind from W
Wind: W 20 mph , 31 km/h
Temperature: 6°C
Wind Chill: 1°C
Dew Point: 2°C
Humidity: 76%
Barometer: 1025 hPa
Clouds: Few Clouds
Visibility: 6 miles , 10 km
Cloud details: Few Clouds 1341 m
2019/03/23 07:20 EGPL 230720Z AUTO 26017KT 9999 FEW044/// 06/02 Q1025
EGPU - Tiree Island, United Kingdom
Distance from station: SSW 56mi, 90km
Updated: 22/03/2019 16:50
NOT Current

 
Visibility: 2 miles , 3 km
2019/03/22 16:50 EGPU 221650Z 26031 9999 FEW012 08/04 Q1017
 
EGEO - Oban Airport, United Kingdom
Distance from station: SE 65mi, 105km
Updated: 22/03/2019 13:50
NOT Current
Nearby showers, Partly cloudy
Nearby showers, Partly cloudy
 Wind from WSW
Wind: WSW 14 mph , 22 km/h
Temperature: 11°C
Dew Point: 7°C
Humidity: 77%
Barometer: 1016 hPa
Summary: Nearby Showers
Clouds: Partly cloudy
Visibility: 6 miles , 10 km
Cloud details: Few Clouds 945 m
Partly cloudy 1097 m
2019/03/22 13:50 EGEO 221350Z 24012KT 210V270 9999 VCSH FEW031 SCT036 11/07 Q1016
EGPO - Stornoway, United Kingdom
Distance from station: 0 66mi, 106km
Updated: 23/03/2019 07:20
Nearby showers, Partly cloudy
Nearby showers, Partly cloudy
 Wind from W
Wind: W 16 mph , 26 km/h
Temperature: 4°C
Wind Chill: -1°C
Dew Point: 0°C
Humidity: 75%
Barometer: 1022 hPa
Summary: Nearby Showers
Clouds: Partly cloudy
Visibility: 6 miles , 10 km
Cloud details: Few Clouds 335 m
Partly cloudy 549 m
2019/03/23 07:20 EGPO 230720Z 27014KT 9999 VCSH FEW011 SCT018CB 04/00 Q1022 R36/650199
 
EGPE - Inverness/Dalcro, United Kingdom
Distance from station: ENE 88mi, 141km
Updated: 23/03/2019 07:20
Nearby showers, Few clouds
Nearby showers, Few clouds
 Wind from SW
Wind: SW 14 mph , 22 km/h
Temperature: 4°C
Wind Chill: -1°C
Dew Point: 1°C
Humidity: 81%
Barometer: 1024 hPa
Summary: Nearby Showers
Clouds: Few Clouds
Visibility: 6 miles , 10 km
Cloud details: Few Clouds 366 m
2019/03/23 07:20 EGPE 230720Z 23012KT 9999 VCSH FEW012 04/01 Q1024
EGQA - Tain Range (saws, United Kingdom
Distance from station: ENE 97mi, 156km
Updated: 22/03/2019 10:50
NOT Current
Nearby showers, Mostly cloudy
Nearby showers, Mostly cloudy
 Wind from SSW
Wind: SSW 31 mph , 50 km/h
Summary: Nearby Showers
Clouds: Mostly cloudy
Visibility: 6 miles , 10 km
Cloud details: Few Clouds 396 m
Partly cloudy 732 m
Mostly cloudy 4877 m
2019/03/22 10:50 EGQA 221050Z 20027KT 9999 VCSH FEW013 SCT024 BKN160 09/// Q1009 WHT
 
EGQK - Kinloss Raf, United Kingdom
Distance from station: ENE 107mi, 171km
Updated: 23/03/2019 06:50
Few Clouds
Few Clouds
 Wind from WSW
Wind: WSW 21 mph , 33 km/h, Gust: 35 mph , 56 km/h
Temperature: 4°C
Wind Chill: -2°C
Dew Point: 0°C
Humidity: 75%
Barometer: 1023 hPa
Clouds: Few Clouds
Visibility: 6 miles , 10 km
Cloud details: Few Clouds 1829 m
2019/03/23 06:50 EGQK 230650Z AUTO 25018G30KT 9999 FEW060/// 04/00 Q1023 RERA
EGPI - Islay/Port Ellen, United Kingdom
Distance from station: S 110mi, 177km
Updated: 23/03/2019 07:20
Few Clouds
Few Clouds
 Wind from W
Wind: W 17 mph , 28 km/h
Temperature: 6°C
Wind Chill: 2°C
Dew Point: 3°C
Humidity: 81%
Barometer: 1029 hPa
Clouds: Few Clouds
Visibility: 6 miles , 10 km
Cloud details: Few Clouds 1097 m
2019/03/23 07:20 EGPI 230720Z AUTO 28015KT 9999 FEW036/// 06/03 Q1029 RERA
 
EGQS - Lossiemouth Raf, United Kingdom
Distance from station: ENE 117mi, 188km
Updated: 23/03/2019 06:50
Few Clouds
Few Clouds
 Wind from WSW
Wind: WSW 23 mph , 37 km/h
Temperature: 4°C
Wind Chill: -2°C
Dew Point: 0°C
Humidity: 75%
Barometer: 1022 hPa
Clouds: Few Clouds
Visibility: 6 miles , 10 km
Cloud details: Few Clouds 610 m
2019/03/23 06:50 EGQS 230650Z 25020KT 9999 FEW020 04/00 Q1022 BLU
EGPF - Glasgow Airport, United Kingdom
Distance from station: SE 121mi, 195km
Updated: 23/03/2019 07:20
Clear
Clear
 Wind from WSW
Wind: WSW 7 mph , 11 km/h
Temperature: 5°C
Wind Chill: 2°C
Dew Point: 1°C
Humidity: 76%
Barometer: 1029 hPa
Clouds: Clear
Visibility: 6 miles , 10 km
2019/03/23 07:20 EGPF 230720Z AUTO 25006KT 220V290 9999 NCD 05/01 Q1029
 
EGEC - Campbeltown, United Kingdom
Distance from station: SSE 129mi, 207km
Updated: 22/03/2019 17:20
NOT Current
Mostly cloudy
Mostly cloudy
 Wind from WSW
Wind: WSW 21 mph , 33 km/h
Temperature: 8°C
Wind Chill: 3°C
Dew Point: 5°C
Humidity: 82%
Barometer: 1020 hPa
Clouds: Mostly cloudy
Visibility: 6 miles , 10 km
Cloud details: Few Clouds 1189 m
Partly cloudy 1341 m
Mostly cloudy 1463 m
2019/03/22 17:20 EGEC 221720Z 25018KT 9999 FEW039 SCT044 BKN048 08/05 Q1020
EGPN - Dundee/Riverside, United Kingdom
Distance from station: ESE 137mi, 221km
Updated: 22/03/2019 20:20
NOT Current
Few Clouds
Few Clouds
 Wind from W
Wind: W 26 mph , 43 km/h
Temperature: 7°C
Wind Chill: 2°C
Dew Point: 4°C
Humidity: 81%
Barometer: 1019 hPa
Clouds: Few Clouds
Visibility: 6 miles , 10 km
Cloud details: Few Clouds 914 m
2019/03/22 20:20 EGPN 222020Z 27023KT 9999 FEW030 07/04 Q1019
 
EGPK - Prestwick(Civ/Na, United Kingdom
Distance from station: SSE 139mi, 224km
Updated: 23/03/2019 07:20
Nearby showers, Few clouds
Nearby showers, Few clouds
 Wind from WSW
Wind: WSW 15 mph , 24 km/h
Temperature: 6°C
Wind Chill: 2°C
Dew Point: 4°C
Humidity: 87%
Barometer: 1030 hPa
Summary: Nearby Showers
Clouds: Few Clouds
Visibility: 6 miles , 10 km
Cloud details: Few Clouds 792 m
2019/03/23 07:20 EGPK 230720Z 25013KT 9999 VCSH FEW026CB 06/04 Q1030
EGQL - Leuchars Raf, United Kingdom
Distance from station: ESE 145mi, 233km
Updated: 23/03/2019 06:50
Clear
Clear
 Wind from WSW
Wind: WSW 10 mph , 17 km/h
Temperature: 3°C
Wind Chill: -1°C
Dew Point: 0°C
Humidity: 81%
Barometer: 1026 hPa
Summary: Clear
Visibility: greater than 7 miles , 10 km
2019/03/23 06:50 EGQL 230650Z 24009KT CAVOK 03/M00 Q1026 BLU
 
EGPH - Edinburgh Airpor, United Kingdom
Distance from station: SE 145mi, 234km
Updated: 23/03/2019 07:20
Few Clouds
Few Clouds
 Wind from WSW
Wind: WSW 16 mph , 26 km/h
Temperature: 4°C
Wind Chill: -1°C
Dew Point: 1°C
Humidity: 81%
Barometer: 1027 hPa
Clouds: Few Clouds
Visibility: 6 miles , 10 km
Cloud details: Few Clouds 884 m
2019/03/23 07:20 EGPH 230720Z 24014KT 9999 FEW029 04/01 Q1027
EGPC - Wick, United Kingdom
Distance from station: NE 146mi, 234km
Updated: 23/03/2019 07:20
Clear
Clear
 Wind from W
Wind: W 20 mph , 31 km/h
Temperature: 4°C
Wind Chill: -2°C
Dew Point: 0°C
Humidity: 75%
Barometer: 1020 hPa
Clouds: Clear
Visibility: 6 miles , 10 km
2019/03/23 07:20 EGPC 230720Z AUTO 27017KT 9999 NCD 04/M00 Q1020

-

free counters
QR Code Twitter Scottish Weather Network UK Weather Network
Argyll House B & B

Argyll House B & B is situated in North West Skye and is the perfect base to see all that the Isle of Skye has to offer.
Bookings been taken for 2019.